Time;durP1;ratioP1;P1;durP2;ratioP2;P2;SDS_P1;SDS_P2;PMS_P1;PMS_P2;Temp;Humidity;BMP_temperature;BMP_pressure;BME280_temperature;BME280_humidity;BME280_pressure;Samples;Min_cycle;Max_cycle;Signal;HPM_P1;HPM_P2
2022/05/14 00:01:42;;;;;;;10.30;3.88;;;;;;;14.23;64.52;100834.03;5042639;28;20069;-78
2022/05/14 00:04:10;;;;;;;6.05;3.40;;;;;;;14.20;64.39;100847.50;5036425;28;20156;-78
2022/05/14 00:06:38;;;;;;;8.32;3.65;;;;;;;14.10;64.73;100817.00;5023705;28;20116;-77
2022/05/14 00:09:07;;;;;;;7.28;3.75;;;;;;;14.21;64.94;100830.59;5046971;28;20183;-76
2022/05/14 00:14:21;;;;;;;8.75;3.97;;;;;;;14.18;65.38;100834.28;5048615;28;20048;-80
2022/05/14 00:16:49;;;;;;;8.00;3.47;;;;;;;14.15;65.04;100833.63;5050520;28;20037;-77
2022/05/14 00:19:15;;;;;;;5.38;3.17;;;;;;;14.15;65.08;100839.81;5042553;28;20045;-78
2022/05/14 00:21:42;;;;;;;6.57;3.80;;;;;;;14.11;65.00;100846.22;5045633;28;20052;-77
2022/05/14 00:24:09;;;;;;;6.63;3.13;;;;;;;13.94;65.19;100827.63;5043542;28;20068;-77
2022/05/14 00:26:38;;;;;;;7.00;3.22;;;;;;;13.83;66.15;100830.03;5047286;28;20110;-77
2022/05/14 00:29:06;;;;;;;6.80;3.65;;;;;;;13.76;66.50;100833.94;5050575;28;20420;-78
2022/05/14 00:31:33;;;;;;;8.38;3.63;;;;;;;13.69;66.29;100825.44;5045451;28;20551;-78
2022/05/14 00:34:00;;;;;;;5.32;3.63;;;;;;;13.69;66.71;100842.25;5050413;28;20287;-78
2022/05/14 00:36:27;;;;;;;6.88;3.03;;;;;;;13.73;67.20;100847.41;5026926;28;20057;-77
2022/05/14 00:38:54;;;;;;;6.80;3.63;;;;;;;13.68;67.02;100843.22;5051654;28;20045;-78
2022/05/14 00:41:21;;;;;;;8.38;3.58;;;;;;;13.66;66.93;100836.25;5038299;28;20045;-77
2022/05/14 00:43:59;;;;;;;3.30;3.00;;;;;;;13.48;67.47;100830.06;5047426;28;20099;-78
2022/05/14 00:46:43;;;;;;;5.30;2.95;;;;;;;13.52;67.43;100850.28;5049249;28;20091;-77
2022/05/14 00:49:13;;;;;;;6.20;3.58;;;;;;;13.47;67.62;100851.44;5050651;28;20067;-78
2022/05/14 00:51:44;;;;;;;5.88;3.40;;;;;;;13.46;68.24;100855.91;5048717;28;20060;-78
2022/05/14 00:54:21;;;;;;;6.13;3.03;;;;;;;13.39;68.01;100850.97;5048092;28;20044;-78
2022/05/14 00:56:56;;;;;;;6.47;3.30;;;;;;;13.29;68.46;100847.91;5044548;28;20041;-76
2022/05/14 00:59:25;;;;;;;7.78;3.30;;;;;;;13.33;68.44;100854.81;5050848;28;20124;-77
2022/05/14 01:01:53;;;;;;;5.63;2.97;;;;;;;13.29;68.67;100839.94;5053526;28;20053;-76
2022/05/14 01:04:21;;;;;;;8.85;3.78;;;;;;;13.35;69.26;100852.94;5052321;28;20119;-77
2022/05/14 01:07:05;;;;;;;5.15;3.03;;;;;;;13.36;68.69;100844.03;5051359;28;20140;-76
2022/05/14 01:09:35;;;;;;;4.65;2.80;;;;;;;13.40;68.51;100850.88;5035522;28;20111;-77
2022/05/14 01:12:03;;;;;;;6.15;3.20;;;;;;;13.44;68.36;100855.13;5042013;28;20049;-77
2022/05/14 01:14:30;;;;;;;8.40;3.67;;;;;;;13.40;68.33;100842.91;5038163;28;20073;-76
2022/05/14 01:16:56;;;;;;;4.95;2.97;;;;;;;13.31;68.07;100820.31;5046868;28;20056;-77
2022/05/14 01:19:23;;;;;;;7.57;3.22;;;;;;;13.42;67.81;100849.00;5052266;28;20442;-77
2022/05/14 01:21:56;;;;;;;7.85;3.35;;;;;;;13.41;68.36;100849.94;5050811;28;20052;-76
2022/05/14 01:27:32;;;;;;;7.22;2.70;;;;;;;13.46;67.55;100845.25;5050566;28;20072;-77
2022/05/14 01:29:59;;;;;;;7.15;3.15;;;;;;;13.42;67.51;100832.19;5048087;28;20098;-77
2022/05/14 01:32:26;;;;;;;4.82;2.78;;;;;;;13.38;67.73;100830.66;5046511;28;20060;-76
2022/05/14 01:34:52;;;;;;;5.05;3.22;;;;;;;13.42;67.60;100837.50;5049408;28;20377;-76
2022/05/14 01:37:22;;;;;;;5.50;2.83;;;;;;;13.50;67.43;100849.50;5047912;28;20087;-77
2022/05/14 01:39:49;;;;;;;5.47;3.05;;;;;;;13.44;67.72;100833.84;5041116;28;20049;-78
2022/05/14 01:42:16;;;;;;;5.28;2.80;;;;;;;13.50;67.43;100843.31;5030107;28;20052;-76
2022/05/14 01:44:43;;;;;;;6.70;2.75;;;;;;;13.51;67.65;100829.06;5049383;28;20056;-76
2022/05/14 01:47:11;;;;;;;4.97;2.70;;;;;;;13.54;67.01;100843.03;5039891;28;20563;-78
2022/05/14 01:49:38;;;;;;;6.25;3.00;;;;;;;13.52;67.14;100836.09;5046713;28;20041;-78
2022/05/14 01:52:05;;;;;;;7.40;3.17;;;;;;;13.63;67.22;100839.91;5046977;28;20521;-78
2022/05/14 01:54:31;;;;;;;5.10;2.90;;;;;;;13.64;66.95;100841.66;5047874;28;21553;-76
2022/05/14 01:56:59;;;;;;;5.10;2.83;;;;;;;13.66;66.59;100836.25;5050196;28;20041;-79
2022/05/14 01:59:26;;;;;;;6.60;2.85;;;;;;;13.65;66.47;100846.03;5043964;28;20046;-76
2022/05/14 02:01:53;;;;;;;5.60;2.85;;;;;;;13.44;66.86;100803.72;5049604;28;20061;-78
2022/05/14 02:04:20;;;;;;;5.47;2.90;;;;;;;13.65;66.93;100835.38;5040983;28;20045;-78
2022/05/14 02:06:47;;;;;;;8.98;3.40;;;;;;;13.65;67.06;100839.84;5037820;28;20053;-77
2022/05/14 02:09:14;;;;;;;6.03;3.00;;;;;;;13.65;66.91;100832.72;5043659;28;20087;-77
2022/05/14 02:11:42;;;;;;;6.95;3.33;;;;;;;13.64;66.82;100833.66;5043260;28;20461;-77
2022/05/14 02:14:09;;;;;;;7.10;2.67;;;;;;;13.67;67.50;100835.31;5049251;28;20053;-79
2022/05/14 02:16:37;;;;;;;5.30;2.90;;;;;;;13.68;67.36;100840.56;5050244;28;20439;-78
2022/05/14 02:19:04;;;;;;;7.50;2.85;;;;;;;13.62;67.50;100826.69;5045899;28;20053;-78
2022/05/14 02:21:32;;;;;;;6.82;3.30;;;;;;;13.65;67.41;100829.19;5048514;28;21781;-78
2022/05/14 02:24:00;;;;;;;8.20;3.08;;;;;;;13.46;67.53;100812.47;5025256;28;20508;-78
2022/05/14 02:26:27;;;;;;;6.70;3.20;;;;;;;13.49;68.07;100829.13;5048655;28;20481;-79
2022/05/14 02:28:54;;;;;;;5.65;3.13;;;;;;;13.47;68.12;100815.06;5049535;28;20084;-78
2022/05/14 02:31:21;;;;;;;7.22;3.22;;;;;;;13.37;67.83;100807.63;5048237;28;20734;-78
2022/05/14 02:33:48;;;;;;;10.10;3.90;;;;;;;13.49;68.29;100830.94;5039085;28;20052;-79
2022/05/14 02:36:15;;;;;;;3.80;3.10;;;;;;;13.47;68.56;100831.00;5047297;28;20110;-77
2022/05/14 02:38:42;;;;;;;6.75;3.20;;;;;;;13.32;68.42;100813.19;5044616;28;20541;-78
2022/05/14 02:41:08;;;;;;;7.85;3.10;;;;;;;13.38;68.01;100826.16;5048157;28;20037;-77
2022/05/14 02:43:36;;;;;;;4.93;3.45;;;;;;;13.42;68.17;100842.81;5051551;28;20106;-78
2022/05/14 02:46:04;;;;;;;6.53;3.10;;;;;;;13.35;68.43;100834.31;5044919;28;20049;-78
2022/05/14 02:48:31;;;;;;;8.20;3.30;;;;;;;13.32;68.51;100835.34;5045994;28;21753;-79
2022/05/14 02:50:59;;;;;;;5.28;3.05;;;;;;;13.23;68.74;100826.94;5042748;28;20075;-78
2022/05/14 02:53:25;;;;;;;6.07;3.53;;;;;;;13.19;69.52;100828.06;5050058;28;20091;-79
2022/05/14 02:55:52;;;;;;;6.18;3.25;;;;;;;13.17;69.93;100840.56;5050822;28;20068;-78
2022/05/14 03:01:06;;;;;;;8.77;3.80;;;;;;;13.10;70.78;100832.00;5046385;28;20045;-79
2022/05/14 03:03:33;;;;;;;6.00;3.63;;;;;;;12.97;71.13;100815.81;5050405;28;20132;-78
2022/05/14 03:06:00;;;;;;;7.38;3.70;;;;;;;12.98;71.60;100832.63;5043950;28;20744;-78
2022/05/14 03:08:27;;;;;;;10.20;3.60;;;;;;;12.88;72.27;100837.53;5048477;28;20114;-79
2022/05/14 03:10:54;;;;;;;6.55;3.72;;;;;;;12.74;72.94;100836.50;5050122;28;20041;-79
2022/05/14 03:13:20;;;;;;;7.57;3.90;;;;;;;12.61;73.74;100844.19;5048978;28;20045;-77
2022/05/14 03:15:48;;;;;;;6.80;3.63;;;;;;;12.53;74.27;100841.91;5046906;28;20087;-77
2022/05/14 03:18:14;;;;;;;5.55;3.40;;;;;;;12.52;73.97;100849.94;5049743;28;20099;-77
2022/05/14 03:20:41;;;;;;;5.35;3.63;;;;;;;12.41;73.65;100837.19;5044861;28;20534;-77
2022/05/14 03:23:08;;;;;;;6.75;3.78;;;;;;;12.38;73.80;100847.94;5028488;28;20069;-77
2022/05/14 03:25:35;;;;;;;5.70;3.40;;;;;;;12.25;74.63;100852.97;5036079;28;20111;-77
2022/05/14 03:28:01;;;;;;;5.88;3.33;;;;;;;12.09;74.72;100851.97;5038842;28;20111;-77
2022/05/14 03:30:28;;;;;;;9.60;4.45;;;;;;;11.93;75.31;100841.19;5043004;28;20080;-78
2022/05/14 03:32:57;;;;;;;10.43;3.70;;;;;;;11.95;75.66;100862.34;5051997;28;20083;-76
2022/05/14 03:35:24;;;;;;;6.20;3.83;;;;;;;11.78;76.13;100847.19;5058526;28;20541;-76
2022/05/14 03:37:51;;;;;;;5.55;3.78;;;;;;;11.86;76.29;100865.41;5057829;28;20505;-78
2022/05/14 03:40:18;;;;;;;7.35;3.20;;;;;;;11.81;76.47;100865.59;5043668;28;20445;-77
2022/05/14 03:42:45;;;;;;;7.25;3.90;;;;;;;11.74;76.88;100871.22;5053690;28;20049;-77
2022/05/14 03:45:12;;;;;;;5.68;3.88;;;;;;;11.66;77.29;100862.72;5046684;28;20044;-76
2022/05/14 03:47:39;;;;;;;7.82;3.90;;;;;;;11.54;77.49;100859.69;5040664;28;20041;-76
2022/05/14 03:50:06;;;;;;;5.07;3.67;;;;;;;11.60;77.98;100869.19;5042691;28;20044;-77
2022/05/14 03:52:33;;;;;;;10.15;3.72;;;;;;;11.53;78.25;100865.06;5047064;28;20543;-78
2022/05/14 03:54:59;;;;;;;6.28;3.75;;;;;;;11.54;78.78;100878.25;5047581;28;20045;-77
2022/05/14 03:57:26;;;;;;;5.65;3.97;;;;;;;11.51;78.49;100870.44;5041834;28;20050;-77
2022/05/14 03:59:53;;;;;;;7.20;4.15;;;;;;;11.54;78.99;100882.69;5046128;28;20045;-76
2022/05/14 04:02:21;;;;;;;8.90;4.40;;;;;;;11.48;78.65;100878.53;5048158;28;20059;-77
2022/05/14 04:04:48;;;;;;;12.02;4.57;;;;;;;11.49;78.88;100885.53;5046983;28;20087;-79
2022/05/14 04:07:18;;;;;;;10.45;4.30;;;;;;;11.46;79.20;100883.03;5041366;28;20057;-78
2022/05/14 04:09:47;;;;;;;5.60;4.20;;;;;;;11.24;79.16;100853.06;5048747;28;20115;-78
2022/05/14 04:12:13;;;;;;;7.80;4.30;;;;;;;11.42;79.13;100884.09;5044513;28;20053;-77
2022/05/14 04:14:40;;;;;;;8.23;4.30;;;;;;;11.41;79.39;100887.66;5041775;28;20087;-78
2022/05/14 04:17:07;;;;;;;5.53;3.70;;;;;;;11.39;79.12;100886.88;5045333;28;20574;-77
2022/05/14 04:19:33;;;;;;;6.45;4.00;;;;;;;11.48;79.42;100881.19;5049006;28;20044;-79
2022/05/14 04:22:00;;;;;;;6.15;3.60;;;;;;;11.50;78.92;100881.09;5046848;28;20474;-77
2022/05/14 04:24:27;;;;;;;6.35;4.18;;;;;;;11.34;78.92;100867.63;5044866;28;20475;-78
2022/05/14 04:26:54;;;;;;;5.68;3.65;;;;;;;11.45;79.38;100880.47;5037088;28;20121;-77
2022/05/14 04:29:22;;;;;;;5.47;4.00;;;;;;;11.49;78.75;100882.88;5026181;28;20149;-77
2022/05/14 04:31:49;;;;;;;8.43;4.22;;;;;;;11.41;78.55;100865.59;5041671;28;20094;-77
2022/05/14 04:34:18;;;;;;;7.43;3.95;;;;;;;11.53;78.70;100887.13;5047131;28;20060;-77
2022/05/14 04:36:44;;;;;;;7.25;4.10;;;;;;;11.54;78.70;100883.56;5048210;28;20227;-77
2022/05/14 04:39:11;;;;;;;6.63;3.70;;;;;;;11.63;78.05;100890.28;5041376;28;20125;-77
2022/05/14 04:41:38;;;;;;;5.43;3.90;;;;;;;11.74;78.28;100901.28;5030612;28;20068;-78
2022/05/14 04:44:11;;;;;;;8.18;3.35;;;;;;;11.72;77.73;100896.97;5046416;28;20453;-78
2022/05/14 04:46:38;;;;;;;6.78;4.60;;;;;;;11.68;78.48;100893.56;5026637;28;20131;-77
2022/05/14 04:49:04;;;;;;;7.00;4.30;;;;;;;11.62;78.70;100890.34;5049184;28;20045;-76
2022/05/14 04:51:32;;;;;;;6.75;3.83;;;;;;;11.64;79.00;100901.75;5045996;28;20112;-77
2022/05/14 04:53:58;;;;;;;7.47;4.45;;;;;;;11.71;78.79;100898.75;5042172;28;20102;-79
2022/05/14 04:56:25;;;;;;;8.68;4.57;;;;;;;11.84;78.34;100904.41;5048933;28;20095;-76
2022/05/14 04:58:52;;;;;;;5.40;3.85;;;;;;;11.88;77.98;100904.22;5030130;28;20450;-77
2022/05/14 05:01:19;;;;;;;9.35;5.05;;;;;;;11.97;78.52;100910.03;5025645;28;20072;-77
2022/05/14 05:03:46;;;;;;;8.35;4.50;;;;;;;12.07;77.86;100906.91;5043138;28;20050;-75
2022/05/14 05:06:14;;;;;;;7.47;4.43;;;;;;;12.09;77.35;100888.28;5042702;28;20437;-76
2022/05/14 05:08:42;;;;;;;8.90;4.60;;;;;;;12.27;76.48;100896.25;5049509;28;20068;-77
2022/05/14 05:11:10;;;;;;;5.72;4.18;;;;;;;12.40;76.16;100901.88;5052965;28;20040;-77
2022/05/14 05:13:37;;;;;;;9.27;4.68;;;;;;;12.30;75.45;100877.50;5037810;28;20056;-78
2022/05/14 05:16:04;;;;;;;6.22;4.85;;;;;;;12.57;75.05;100909.91;5048053;28;20588;-76
2022/05/14 05:18:32;;;;;;;9.85;4.45;;;;;;;12.59;74.52;100896.56;5051403;28;20055;-79
2022/05/14 05:20:59;;;;;;;8.88;4.50;;;;;;;12.63;74.58;100895.44;5050852;28;20052;-77
2022/05/14 05:23:26;;;;;;;7.25;5.05;;;;;;;12.52;75.34;100885.34;5052357;28;20051;-77
2022/05/14 05:25:57;;;;;;;8.98;4.90;;;;;;;12.56;75.28;100888.72;5048989;28;20520;-78
2022/05/14 05:28:25;;;;;;;8.10;5.00;;;;;;;12.63;75.62;100900.75;5045172;28;20535;-76
2022/05/14 05:30:52;;;;;;;10.27;5.20;;;;;;;12.68;75.80;100905.88;5047162;28;20406;-78
2022/05/14 05:33:25;;;;;;;10.05;5.25;;;;;;;12.65;75.67;100893.59;5049394;28;20144;-77
2022/05/14 05:35:52;;;;;;;10.23;4.97;;;;;;;12.84;75.78;100912.19;5052528;28;20107;-79
2022/05/14 05:38:18;;;;;;;8.88;4.63;;;;;;;12.86;75.30;100903.19;5052905;28;20045;-78
2022/05/14 05:40:45;;;;;;;8.90;4.90;;;;;;;13.04;74.96;100911.22;5039613;28;20048;-76
2022/05/14 05:43:13;;;;;;;7.93;5.53;;;;;;;13.19;74.48;100922.00;5053248;28;20041;-79
2022/05/14 05:45:44;;;;;;;8.65;5.25;;;;;;;13.27;73.51;100910.97;5045278;28;20124;-75
2022/05/14 05:48:11;;;;;;;8.63;5.32;;;;;;;13.45;72.89;100922.47;5047197;28;20089;-76
2022/05/14 05:50:38;;;;;;;8.68;5.30;;;;;;;13.63;72.16;100925.06;5040555;28;20405;-77
2022/05/14 05:53:06;;;;;;;10.43;5.93;;;;;;;13.73;71.26;100930.78;5051723;28;20049;-77
2022/05/14 05:58:19;;;;;;;10.88;5.70;;;;;;;13.84;70.57;100904.50;5049653;28;20479;-78
2022/05/14 06:00:47;;;;;;;8.30;5.60;;;;;;;14.13;70.52;100926.03;5052553;28;20049;-77
2022/05/14 06:03:14;;;;;;;8.80;5.57;;;;;;;14.19;69.75;100926.56;5048685;28;20439;-75
2022/05/14 06:05:41;;;;;;;7.78;5.25;;;;;;;14.25;69.65;100920.06;5051189;28;20086;-77
2022/05/14 06:08:09;;;;;;;8.55;5.32;;;;;;;14.32;69.49;100916.97;5056283;28;20053;-77
2022/05/14 06:10:36;;;;;;;7.03;5.38;;;;;;;14.65;68.52;100932.94;5053193;28;20079;-78
2022/05/14 06:13:03;;;;;;;8.32;5.28;;;;;;;14.92;67.03;100932.38;5044226;28;20041;-79
2022/05/14 06:15:29;;;;;;;7.90;5.32;;;;;;;15.09;66.24;100935.81;5050646;28;20116;-77
2022/05/14 06:18:03;;;;;;;7.25;4.95;;;;;;;15.25;65.93;100937.59;5042104;28;20045;-78
2022/05/14 06:20:30;;;;;;;7.20;4.90;;;;;;;15.65;65.36;100934.34;5043999;28;20049;-78
2022/05/14 06:23:00;;;;;;;;;;;;;;;16.27;61.80;100931.47;5048675;28;20119;-78
2022/05/14 06:25:26;;;;;;;7.13;5.43;;;;;;;16.90;59.21;100937.25;5043358;28;19920;-77
2022/05/14 06:27:53;;;;;;;9.38;4.63;;;;;;;17.53;56.17;100932.16;5046339;28;20064;-77
2022/05/14 06:30:20;;;;;;;8.02;4.70;;;;;;;18.10;55.33;100934.50;5047140;28;20067;-75
2022/05/14 06:32:47;;;;;;;7.53;4.70;;;;;;;18.76;52.62;100937.91;5043524;28;20507;-78
2022/05/14 06:35:14;;;;;;;8.05;5.20;;;;;;;19.05;50.37;100922.34;5049722;28;20041;-78
2022/05/14 06:37:41;;;;;;;7.80;5.07;;;;;;;18.92;52.56;100925.09;5047069;28;20091;-77
2022/05/14 06:40:09;;;;;;;7.53;4.60;;;;;;;19.48;49.54;100942.38;5044078;28;20048;-77
2022/05/14 06:42:37;;;;;;;8.38;4.47;;;;;;;19.81;49.73;100933.59;5050318;28;20781;-77
2022/05/14 06:45:04;;;;;;;8.88;4.78;;;;;;;20.07;47.55;100942.31;5045709;28;20123;-77
2022/05/14 06:47:31;;;;;;;7.60;5.28;;;;;;;20.41;46.74;100928.94;5046791;28;20068;-77
2022/05/14 06:49:57;;;;;;;7.55;4.20;;;;;;;20.57;46.92;100937.50;5044117;28;20075;-77
2022/05/14 06:52:25;;;;;;;7.07;4.43;;;;;;;20.80;44.80;100939.19;5048781;28;20071;-77
2022/05/14 06:54:54;;;;;;;7.47;5.38;;;;;;;20.48;46.85;100928.31;5049586;28;20083;-79
2022/05/14 06:57:21;;;;;;;8.32;4.80;;;;;;;19.81;48.64;100949.72;5042351;28;20042;-79
2022/05/14 06:59:48;;;;;;;8.48;4.50;;;;;;;19.86;48.70;100946.66;5050164;28;20060;-77
2022/05/14 07:02:17;;;;;;;8.00;4.47;;;;;;;20.29;47.65;100942.38;5042742;28;20049;-77
2022/05/14 07:07:31;;;;;;;9.02;4.88;;;;;;;20.56;46.13;100950.09;5049653;28;20538;-76
2022/05/14 07:09:59;;;;;;;8.20;4.97;;;;;;;20.08;48.34;100935.97;5044855;28;20106;-80
2022/05/14 07:12:26;;;;;;;10.00;4.28;;;;;;;20.48;46.19;100949.84;5049187;28;20869;-77
2022/05/14 07:14:53;;;;;;;7.63;4.80;;;;;;;20.75;45.15;100941.41;5040367;28;20072;-77
2022/05/14 07:17:20;;;;;;;8.65;4.57;;;;;;;21.00;44.48;100934.88;5044869;28;20133;-78
2022/05/14 07:19:49;;;;;;;7.97;4.22;;;;;;;21.57;42.52;100941.81;5041168;28;20156;-78
2022/05/14 07:22:16;;;;;;;9.73;3.60;;;;;;;22.07;41.09;100944.78;5043874;28;20077;-78
2022/05/14 07:24:44;;;;;;;7.57;3.30;;;;;;;22.32;40.34;100947.91;5048903;28;20128;-76
2022/05/14 07:27:12;;;;;;;8.38;3.15;;;;;;;22.59;39.56;100941.94;5044744;28;20045;-77
2022/05/14 07:29:42;;;;;;;5.97;2.90;;;;;;;22.75;39.18;100931.47;5038653;28;20041;-78
2022/05/14 07:32:13;;;;;;;7.22;3.58;;;;;;;22.92;39.34;100931.84;5049818;28;20607;-78
2022/05/14 07:34:41;;;;;;;5.55;3.05;;;;;;;22.95;38.39;100920.75;5048927;28;20079;-77
2022/05/14 07:37:13;;;;;;;8.07;3.15;;;;;;;23.04;38.93;100931.56;5031188;28;20140;-78
2022/05/14 07:39:48;;;;;;;6.35;2.60;;;;;;;23.30;36.71;100945.41;5039890;28;20378;-78
2022/05/14 07:42:20;;;;;;;7.32;3.25;;;;;;;23.32;38.06;100942.56;5043504;28;20046;-78
2022/05/14 07:44:52;;;;;;;8.82;2.83;;;;;;;23.24;37.71;100945.13;5039546;28;20048;-78
2022/05/14 07:47:19;;;;;;;7.25;2.60;;;;;;;22.89;38.53;100948.31;5047157;28;20077;-76
2022/05/14 07:49:47;;;;;;;7.50;2.97;;;;;;;23.07;37.32;100933.16;5049431;28;20049;-78
2022/05/14 07:52:15;;;;;;;5.10;2.75;;;;;;;23.17;37.07;100947.53;5043086;28;20426;-77
2022/05/14 07:54:42;;;;;;;5.82;2.53;;;;;;;23.15;37.23;100937.84;5048533;28;20048;-78
2022/05/14 07:57:08;;;;;;;8.45;3.47;;;;;;;23.12;37.72;100932.75;5042227;28;20153;-78
2022/05/14 07:59:36;;;;;;;10.20;3.65;;;;;;;22.83;39.43;100940.75;5031648;28;20053;-78
2022/05/14 08:02:05;;;;;;;6.00;3.00;;;;;;;22.78;38.09;100913.31;5047103;28;20103;-78
2022/05/14 08:04:33;;;;;;;7.63;3.30;;;;;;;23.15;38.49;100938.69;5047241;28;20063;-77
2022/05/14 08:06:59;;;;;;;3.92;2.47;;;;;;;22.80;38.49;100927.56;5045067;28;20084;-77
2022/05/14 08:09:26;;;;;;;7.13;2.70;;;;;;;21.98;39.07;100936.47;5050682;28;20041;-78
2022/05/14 08:11:53;;;;;;;5.18;2.78;;;;;;;21.34;40.04;100904.22;5051334;28;20045;-76
2022/05/14 08:14:20;;;;;;;8.23;2.70;;;;;;;20.74;41.48;100934.31;5047912;28;20144;-79
2022/05/14 08:16:47;;;;;;;6.38;2.67;;;;;;;20.30;43.22;100943.22;5049661;28;20094;-79
2022/05/14 08:19:14;;;;;;;9.43;3.03;;;;;;;20.56;42.66;100938.47;5042458;28;20056;-81
2022/05/14 08:24:34;;;;;;;7.22;2.20;;;;;;;21.32;40.50;100938.50;5045578;28;20425;-78
2022/05/14 08:27:04;;;;;;;7.20;2.50;;;;;;;21.90;40.44;100932.69;5049783;28;20124;-77
2022/05/14 08:29:39;;;;;;;5.38;2.30;;;;;;;21.91;40.71;100932.56;5034161;28;20076;-78
2022/05/14 08:32:06;;;;;;;5.78;2.78;;;;;;;21.80;40.15;100929.94;5048952;28;20049;-76
2022/05/14 08:34:33;;;;;;;4.82;2.65;;;;;;;21.54;41.25;100934.00;5048290;28;20078;-77
2022/05/14 08:37:04;;;;;;;6.95;3.03;;;;;;;21.82;40.24;100927.13;5049182;28;20045;-79
2022/05/14 08:39:31;;;;;;;5.43;2.55;;;;;;;22.28;39.37;100929.44;5049702;28;20594;-80
2022/05/14 08:42:00;;;;;;;7.63;3.08;;;;;;;22.62;38.52;100932.72;5048680;28;20045;-78
2022/05/14 08:44:32;;;;;;;6.38;2.30;;;;;;;22.78;37.99;100926.81;5041342;28;20101;-77
2022/05/14 08:47:03;;;;;;;6.50;2.58;;;;;;;23.03;38.11;100923.63;5049016;28;20041;-80
2022/05/14 08:49:46;;;;;;;6.72;2.72;;;;;;;22.44;38.94;100932.50;5052126;28;20136;-78
2022/05/14 08:52:20;;;;;;;7.93;2.70;;;;;;;21.92;40.14;100931.59;5050918;28;20071;-76
2022/05/14 08:54:47;;;;;;;8.25;2.83;;;;;;;21.61;40.66;100933.34;5041300;28;20072;-78
2022/05/14 08:57:31;;;;;;;3.67;2.25;;;;;;;21.28;41.68;100930.78;5040813;28;20041;-78
2022/05/14 09:00:00;;;;;;;6.15;2.45;;;;;;;21.20;42.29;100928.75;5048850;28;20049;-77
2022/05/14 09:02:36;;;;;;;7.22;2.28;;;;;;;21.08;42.70;100913.56;5050238;28;20122;-78
2022/05/14 09:05:11;;;;;;;7.43;2.10;;;;;;;20.94;43.09;100917.38;5045519;28;20041;-77
2022/05/14 09:07:38;;;;;;;5.70;2.22;;;;;;;20.99;43.10;100919.69;5047282;28;20061;-79
2022/05/14 09:10:09;;;;;;;7.55;2.47;;;;;;;20.67;43.38;100917.81;5050152;28;20049;-78
2022/05/14 09:12:53;;;;;;;8.30;3.28;;;;;;;20.54;44.07;100913.53;5045209;28;20473;-77
2022/05/14 09:15:22;;;;;;;4.88;2.30;;;;;;;20.62;43.95;100900.31;5052216;28;20053;-78
2022/05/14 09:18:04;;;;;;;6.75;3.00;;;;;;;20.72;44.06;100916.56;5054288;28;20061;-76
2022/05/14 09:20:41;;;;;;;8.13;2.25;;;;;;;21.02;42.76;100912.22;5054233;28;20088;-77
2022/05/14 09:23:07;;;;;;;8.77;2.50;;;;;;;21.32;42.68;100927.72;5051149;28;20045;-77
2022/05/14 09:25:41;;;;;;;7.60;2.47;;;;;;;21.00;42.63;100921.41;5021409;28;20048;-77
2022/05/14 09:28:22;;;;;;;7.13;2.50;;;;;;;20.63;43.70;100921.72;5040836;28;20257;-77
2022/05/14 09:30:55;;;;;;;7.60;2.00;;;;;;;20.66;43.59;100907.16;5051908;28;20037;-78
2022/05/14 09:33:28;;;;;;;5.88;1.92;;;;;;;20.99;42.46;100915.19;5047534;28;20049;-76
2022/05/14 09:36:00;;;;;;;6.18;1.80;;;;;;;20.89;42.14;100919.63;5048862;28;20457;-78
2022/05/14 09:38:28;;;;;;;4.38;1.77;;;;;;;20.73;42.87;100913.78;5047201;28;20172;-80
2022/05/14 09:41:13;;;;;;;4.70;1.70;;;;;;;20.95;42.50;100918.22;5044015;28;20041;-78
2022/05/14 09:43:40;;;;;;;5.68;1.83;;;;;;;21.19;41.96;100913.56;5049351;28;20053;-77
2022/05/14 09:46:12;;;;;;;7.13;2.00;;;;;;;21.34;40.83;100892.56;5047819;28;20444;-80
2022/05/14 09:48:48;;;;;;;7.65;2.20;;;;;;;21.74;40.60;100911.59;5047066;28;20124;-77
2022/05/14 09:51:27;;;;;;;7.65;2.25;;;;;;;21.94;39.41;100905.34;5046608;28;20037;-78
2022/05/14 09:53:54;;;;;;;5.40;1.48;;;;;;;21.88;39.72;100911.25;5049189;28;20108;-79
2022/05/14 09:56:21;;;;;;;5.25;1.50;;;;;;;21.73;39.94;100909.03;5046014;28;20063;-78
2022/05/14 09:59:15;;;;;;;4.68;1.80;;;;;;;21.73;39.92;100900.94;5049937;28;20044;-78
2022/05/14 10:02:11;;;;;;;5.75;1.60;;;;;;;21.91;40.42;100896.66;5047742;28;20065;-78
2022/05/14 10:05:02;;;;;;;9.57;1.70;;;;;;;21.85;39.61;100903.47;5043495;28;20095;-79
2022/05/14 10:07:51;;;;;;;5.25;1.35;;;;;;;21.91;39.67;100897.53;5051051;28;20059;-78
2022/05/14 10:10:44;;;;;;;4.82;1.50;;;;;;;21.62;39.82;100896.47;5049317;28;20515;-79
2022/05/14 10:13:40;;;;;;;5.93;1.73;;;;;;;21.42;40.33;100890.06;5005969;28;20095;-78
2022/05/14 10:16:16;;;;;;;7.28;1.55;;;;;;;21.48;39.68;100899.50;5041660;28;20127;-78
2022/05/14 10:18:48;;;;;;;4.45;1.88;;;;;;;21.37;40.85;100896.84;5036779;28;20113;-79
2022/05/14 10:21:38;;;;;;;4.93;1.58;;;;;;;21.45;40.76;100895.22;5046406;28;20118;-79
2022/05/14 10:27:31;;;;;;;4.22;1.20;;;;;;;21.67;39.32;100894.25;5006974;28;20052;-80
2022/05/14 10:30:16;;;;;;;7.25;1.90;;;;;;;21.50;39.80;100889.44;5048759;28;20045;-80
2022/05/14 10:32:50;;;;;;;4.45;1.50;;;;;;;21.50;40.06;100889.44;5044022;28;20131;-79
2022/05/14 10:35:36;;;;;;;6.72;1.85;;;;;;;21.75;39.94;100880.97;5045914;28;20478;-77
2022/05/14 10:38:16;;;;;;;3.92;1.40;;;;;;;22.17;38.63;100872.88;5044703;28;20416;-79
2022/05/14 10:40:58;;;;;;;5.03;1.67;;;;;;;22.57;37.74;100879.13;5038915;28;20069;-79
2022/05/14 10:43:58;;;;;;;5.53;1.63;;;;;;;22.79;37.48;100879.94;5046448;28;20386;-80
2022/05/14 10:46:28;;;;;;;2.58;1.52;;;;;;;22.55;38.05;100856.81;5047800;28;20061;-81
2022/05/14 10:49:00;;;;;;;5.47;1.88;;;;;;;22.47;38.48;100877.41;5046515;28;20041;-80
2022/05/14 10:51:34;;;;;;;4.70;1.88;;;;;;;22.63;38.29;100865.09;5033292;28;20068;-79
2022/05/14 10:54:02;;;;;;;5.75;2.05;;;;;;;22.92;37.44;100869.72;5050064;28;20053;-80
2022/05/14 10:56:38;;;;;;;4.10;2.10;;;;;;;23.17;36.95;100862.91;5048928;28;20045;-80
2022/05/14 10:59:08;;;;;;;8.00;1.98;;;;;;;23.38;36.52;100863.63;5044698;28;20064;-78
2022/05/14 11:01:38;;;;;;;6.55;2.25;;;;;;;23.18;36.63;100851.97;5047756;28;20045;-79
2022/05/14 11:04:19;;;;;;;3.75;1.63;;;;;;;23.33;35.22;100858.66;5045710;28;20148;-77
2022/05/14 11:07:00;;;;;;;6.30;1.80;;;;;;;23.35;36.86;100853.97;5047737;28;20526;-78
2022/05/14 11:09:44;;;;;;;3.65;1.60;;;;;;;23.49;35.35;100843.69;5050408;28;20131;-79
2022/05/14 11:12:28;;;;;;;5.57;1.70;;;;;;;23.48;35.09;100859.06;5051275;28;20049;-78
2022/05/14 11:14:57;;;;;;;5.05;1.40;;;;;;;23.21;35.75;100851.69;5049592;28;20069;-80
2022/05/14 11:17:30;;;;;;;8.23;2.00;;;;;;;23.35;35.33;100834.19;5047715;28;20468;-78
2022/05/14 11:20:03;;;;;;;4.45;2.40;;;;;;;23.59;34.77;100831.06;5037792;28;20602;-78
2022/05/14 11:22:37;;;;;;;7.00;2.40;;;;;;;23.85;35.51;100837.56;5047683;28;20064;-79
2022/05/14 11:25:21;;;;;;;3.53;1.70;;;;;;;23.85;35.01;100829.44;5047222;28;20475;-78
2022/05/14 11:28:11;;;;;;;5.50;1.70;;;;;;;23.67;35.82;100836.59;5037984;28;20049;-80
2022/05/14 11:30:42;;;;;;;5.93;2.00;;;;;;;23.85;35.10;100840.25;5041319;28;20128;-78
2022/05/14 11:33:31;;;;;;;6.20;1.95;;;;;;;23.69;34.52;100834.59;5049554;28;20037;-78
2022/05/14 11:36:16;;;;;;;8.40;1.70;;;;;;;23.72;35.54;100839.72;5050197;28;20102;-79
2022/05/14 11:38:49;;;;;;;5.70;2.22;;;;;;;23.88;34.63;100831.84;5044924;28;20444;-78
2022/05/14 11:41:29;;;;;;;7.20;1.92;;;;;;;23.95;34.28;100841.06;5045400;28;20072;-79
2022/05/14 11:43:56;;;;;;;4.18;1.70;;;;;;;23.88;34.32;100829.16;5041775;28;20132;-77
2022/05/14 11:46:32;;;;;;;4.95;1.33;;;;;;;24.05;35.17;100831.09;5047488;28;20045;-78
2022/05/14 11:49:36;;;;;;;4.45;1.50;;;;;;;24.23;33.65;100823.06;5049873;28;20068;-77
2022/05/14 11:52:24;;;;;;;5.70;1.77;;;;;;;23.89;33.96;100836.25;5049358;28;20049;-78
2022/05/14 11:55:01;;;;;;;5.30;1.83;;;;;;;23.42;34.70;100838.03;5044196;28;20095;-78
2022/05/14 11:57:49;;;;;;;4.10;1.60;;;;;;;23.03;35.29;100826.38;5042035;28;20045;-78
2022/05/14 12:00:20;;;;;;;6.93;1.50;;;;;;;23.16;35.61;100829.63;5044172;28;20084;-77